sensor_id;sensor_type;location;lat;lon;timestamp;pressure;altitude;pressure_sealevel;temperature;humidity
84592;BME280;74826;50.812;16.038;2024-02-28T00:01:02;96647.00;;;7.23;81.22
84592;BME280;74826;50.812;16.038;2024-02-28T00:03:28;96660.19;;;7.09;82.33
84592;BME280;74826;50.812;16.038;2024-02-28T00:05:53;96658.19;;;6.93;82.61
84592;BME280;74826;50.812;16.038;2024-02-28T00:08:18;96642.84;;;6.51;83.48
84592;BME280;74826;50.812;16.038;2024-02-28T00:10:45;96650.81;;;6.59;84.19
84592;BME280;74826;50.812;16.038;2024-02-28T00:13:10;96671.28;;;6.71;84.24
84592;BME280;74826;50.812;16.038;2024-02-28T00:15:36;96655.56;;;6.57;84.00
84592;BME280;74826;50.812;16.038;2024-02-28T00:18:01;96651.88;;;6.58;84.61
84592;BME280;74826;50.812;16.038;2024-02-28T00:20:28;96670.59;;;6.65;84.36
84592;BME280;74826;50.812;16.038;2024-02-28T00:22:54;96664.97;;;6.58;84.43
84592;BME280;74826;50.812;16.038;2024-02-28T00:25:20;96657.88;;;6.72;83.43
84592;BME280;74826;50.812;16.038;2024-02-28T00:27:45;96645.34;;;6.69;83.84
84592;BME280;74826;50.812;16.038;2024-02-28T00:30:11;96647.97;;;6.69;82.85
84592;BME280;74826;50.812;16.038;2024-02-28T00:32:37;96679.31;;;6.74;83.40
84592;BME280;74826;50.812;16.038;2024-02-28T00:35:02;96668.25;;;6.64;83.86
84592;BME280;74826;50.812;16.038;2024-02-28T00:37:29;96624.06;;;6.35;83.88
84592;BME280;74826;50.812;16.038;2024-02-28T00:39:54;96675.25;;;6.68;83.90
84592;BME280;74826;50.812;16.038;2024-02-28T00:42:19;96675.25;;;6.68;83.84
84592;BME280;74826;50.812;16.038;2024-02-28T00:44:45;96674.09;;;6.61;83.61
84592;BME280;74826;50.812;16.038;2024-02-28T00:47:10;96677.88;;;6.68;84.11
84592;BME280;74826;50.812;16.038;2024-02-28T00:49:36;96676.03;;;6.69;83.53
84592;BME280;74826;50.812;16.038;2024-02-28T00:52:02;96684.78;;;6.64;83.43
84592;BME280;74826;50.812;16.038;2024-02-28T00:54:27;96675.25;;;6.68;83.54
84592;BME280;74826;50.812;16.038;2024-02-28T00:56:53;96669.16;;;6.59;84.06
84592;BME280;74826;50.812;16.038;2024-02-28T00:59:18;96668.69;;;6.57;83.06
84592;BME280;74826;50.812;16.038;2024-02-28T01:01:44;96646.47;;;6.41;83.80
84592;BME280;74826;50.812;16.038;2024-02-28T01:04:09;96669.44;;;6.58;84.22
84592;BME280;74826;50.812;16.038;2024-02-28T01:06:34;96684.41;;;6.57;84.19
84592;BME280;74826;50.812;16.038;2024-02-28T01:09:00;96674.00;;;6.66;83.47
84592;BME280;74826;50.812;16.038;2024-02-28T01:11:25;96677.41;;;6.53;83.93
84592;BME280;74826;50.812;16.038;2024-02-28T01:13:51;96674.50;;;6.54;84.06
84592;BME280;74826;50.812;16.038;2024-02-28T01:16:16;96672.06;;;6.58;84.67
84592;BME280;74826;50.812;16.038;2024-02-28T01:18:42;96672.63;;;6.68;83.71
84592;BME280;74826;50.812;16.038;2024-02-28T01:21:07;96672.34;;;6.56;83.50
84592;BME280;74826;50.812;16.038;2024-02-28T01:23:33;96654.81;;;6.43;84.05
84592;BME280;74826;50.812;16.038;2024-02-28T01:25:58;96660.09;;;6.65;83.70
84592;BME280;74826;50.812;16.038;2024-02-28T01:28:24;96655.88;;;6.42;84.02
84592;BME280;74826;50.812;16.038;2024-02-28T01:30:49;96654.34;;;6.41;84.19
84592;BME280;74826;50.812;16.038;2024-02-28T01:33:15;96679.53;;;6.64;83.60
84592;BME280;74826;50.812;16.038;2024-02-28T01:35:40;96672.47;;;6.51;84.76
84592;BME280;74826;50.812;16.038;2024-02-28T01:38:06;96668.69;;;6.57;84.18
84592;BME280;74826;50.812;16.038;2024-02-28T01:40:31;96654.69;;;6.48;84.34
84592;BME280;74826;50.812;16.038;2024-02-28T01:43:04;96670.50;;;6.70;83.24
84592;BME280;74826;50.812;16.038;2024-02-28T01:45:30;96663.47;;;6.79;83.85
84592;BME280;74826;50.812;16.038;2024-02-28T01:47:55;96659.84;;;6.53;84.01
84592;BME280;74826;50.812;16.038;2024-02-28T01:50:20;96657.72;;;6.55;84.38
84592;BME280;74826;50.812;16.038;2024-02-28T01:52:46;96648.69;;;6.48;84.97
84592;BME280;74826;50.812;16.038;2024-02-28T01:55:12;96634.41;;;6.40;84.23
84592;BME280;74826;50.812;16.038;2024-02-28T01:57:38;96667.91;;;6.43;84.71
84592;BME280;74826;50.812;16.038;2024-02-28T02:00:06;96658.78;;;6.41;85.76
84592;BME280;74826;50.812;16.038;2024-02-28T02:02:33;96628.69;;;6.38;84.71
84592;BME280;74826;50.812;16.038;2024-02-28T02:04:59;96655.28;;;6.45;85.25
84592;BME280;74826;50.812;16.038;2024-02-28T02:07:25;96650.53;;;6.47;84.51
84592;BME280;74826;50.812;16.038;2024-02-28T02:09:51;96648.28;;;6.54;84.93
84592;BME280;74826;50.812;16.038;2024-02-28T02:12:17;96648.66;;;6.61;84.45
84592;BME280;74826;50.812;16.038;2024-02-28T02:14:47;96636.16;;;6.58;84.39
84592;BME280;74826;50.812;16.038;2024-02-28T02:17:13;96643.22;;;6.58;83.89
84592;BME280;74826;50.812;16.038;2024-02-28T02:19:38;96649.84;;;6.55;84.75
84592;BME280;74826;50.812;16.038;2024-02-28T02:22:05;96659.41;;;6.73;84.58
84592;BME280;74826;50.812;16.038;2024-02-28T02:24:33;96661.94;;;6.78;83.76
84592;BME280;74826;50.812;16.038;2024-02-28T02:26:58;96653.44;;;6.59;84.27
84592;BME280;74826;50.812;16.038;2024-02-28T02:29:24;96651.66;;;6.68;83.52
84592;BME280;74826;50.812;16.038;2024-02-28T02:31:49;96668.34;;;6.72;84.34
84592;BME280;74826;50.812;16.038;2024-02-28T02:34:15;96670.50;;;6.92;82.88
84592;BME280;74826;50.812;16.038;2024-02-28T02:36:40;96680.22;;;7.05;82.82
84592;BME280;74826;50.812;16.038;2024-02-28T02:39:05;96670.44;;;7.19;82.60
84592;BME280;74826;50.812;16.038;2024-02-28T02:41:33;96652.00;;;7.11;81.66
84592;BME280;74826;50.812;16.038;2024-02-28T02:43:58;96659.34;;;7.22;81.19
84592;BME280;74826;50.812;16.038;2024-02-28T02:46:24;96645.16;;;7.24;81.40
84592;BME280;74826;50.812;16.038;2024-02-28T02:48:49;96660.31;;;7.27;81.24
84592;BME280;74826;50.812;16.038;2024-02-28T02:51:15;96645.34;;;7.27;81.17
84592;BME280;74826;50.812;16.038;2024-02-28T02:53:42;96667.56;;;7.52;80.81
84592;BME280;74826;50.812;16.038;2024-02-28T02:56:08;96650.09;;;7.47;79.90
84592;BME280;74826;50.812;16.038;2024-02-28T02:58:33;96662.31;;;7.52;79.56
84592;BME280;74826;50.812;16.038;2024-02-28T03:00:59;96663.50;;;7.68;78.64
84592;BME280;74826;50.812;16.038;2024-02-28T03:03:24;96667.66;;;7.69;78.96
84592;BME280;74826;50.812;16.038;2024-02-28T03:05:49;96672.97;;;7.77;79.07
84592;BME280;74826;50.812;16.038;2024-02-28T03:08:15;96666.47;;;7.75;79.66
84592;BME280;74826;50.812;16.038;2024-02-28T03:10:40;96666.81;;;7.82;78.39
84592;BME280;74826;50.812;16.038;2024-02-28T03:13:06;96652.84;;;7.73;78.90
84592;BME280;74826;50.812;16.038;2024-02-28T03:15:32;96677.31;;;7.82;78.19
84592;BME280;74826;50.812;16.038;2024-02-28T03:17:57;96674.56;;;7.87;78.45
84592;BME280;74826;50.812;16.038;2024-02-28T03:20:23;96671.94;;;7.87;79.19
84592;BME280;74826;50.812;16.038;2024-02-28T03:22:49;96658.47;;;7.80;77.77
84592;BME280;74826;50.812;16.038;2024-02-28T03:25:14;96690.06;;;7.97;78.07
84592;BME280;74826;50.812;16.038;2024-02-28T03:27:40;96677.03;;;7.92;78.01
84592;BME280;74826;50.812;16.038;2024-02-28T03:30:06;96676.44;;;7.95;77.56
84592;BME280;74826;50.812;16.038;2024-02-28T03:32:31;96685.59;;;7.97;77.79
84592;BME280;74826;50.812;16.038;2024-02-28T03:34:57;96669.31;;;7.87;77.53
84592;BME280;74826;50.812;16.038;2024-02-28T03:37:22;96689.63;;;8.03;77.52
84592;BME280;74826;50.812;16.038;2024-02-28T03:39:47;96685.75;;;8.01;77.42
84592;BME280;74826;50.812;16.038;2024-02-28T03:42:13;96691.94;;;8.05;77.59
84592;BME280;74826;50.812;16.038;2024-02-28T03:44:38;96693.81;;;8.04;77.53
84592;BME280;74826;50.812;16.038;2024-02-28T03:47:04;96684.44;;;7.90;77.31
84592;BME280;74826;50.812;16.038;2024-02-28T03:49:29;96712.97;;;8.05;77.73
84592;BME280;74826;50.812;16.038;2024-02-28T03:51:55;96690.66;;;7.94;77.41
84592;BME280;74826;50.812;16.038;2024-02-28T03:54:20;96674.50;;;7.78;77.61
84592;BME280;74826;50.812;16.038;2024-02-28T03:56:45;96701.22;;;8.02;77.60
84592;BME280;74826;50.812;16.038;2024-02-28T03:59:11;96714.66;;;8.09;77.47
84592;BME280;74826;50.812;16.038;2024-02-28T04:01:36;96709.03;;;7.94;77.60
84592;BME280;74826;50.812;16.038;2024-02-28T04:04:02;96717.88;;;7.98;78.26
84592;BME280;74826;50.812;16.038;2024-02-28T04:06:27;96715.72;;;8.00;77.64
84592;BME280;74826;50.812;16.038;2024-02-28T04:08:53;96726.22;;;8.00;78.39
84592;BME280;74826;50.812;16.038;2024-02-28T04:11:19;96706.06;;;7.87;78.21
84592;BME280;74826;50.812;16.038;2024-02-28T04:13:44;96712.44;;;7.64;78.77
84592;BME280;74826;50.812;16.038;2024-02-28T04:16:10;96718.56;;;7.81;78.15
84592;BME280;74826;50.812;16.038;2024-02-28T04:18:36;96728.28;;;7.81;79.13
84592;BME280;74826;50.812;16.038;2024-02-28T04:21:01;96733.91;;;7.88;78.62
84592;BME280;74826;50.812;16.038;2024-02-28T04:23:27;96730.44;;;7.79;79.54
84592;BME280;74826;50.812;16.038;2024-02-28T04:25:52;96732.94;;;7.84;79.21
84592;BME280;74826;50.812;16.038;2024-02-28T04:28:18;96741.03;;;7.96;78.40
84592;BME280;74826;50.812;16.038;2024-02-28T04:30:43;96722.63;;;7.87;78.89
84592;BME280;74826;50.812;16.038;2024-02-28T04:33:09;96740.63;;;8.02;77.94
84592;BME280;74826;50.812;16.038;2024-02-28T04:35:34;96712.91;;;7.96;77.83
84592;BME280;74826;50.812;16.038;2024-02-28T04:38:00;96732.94;;;7.84;78.01
84592;BME280;74826;50.812;16.038;2024-02-28T04:40:25;96649.19;;;7.30;78.47
84592;BME280;74826;50.812;16.038;2024-02-28T04:42:50;96729.72;;;7.43;80.10
84592;BME280;74826;50.812;16.038;2024-02-28T04:45:16;96730.31;;;7.17;80.83
84592;BME280;74826;50.812;16.038;2024-02-28T04:47:41;96736.03;;;7.19;81.59
84592;BME280;74826;50.812;16.038;2024-02-28T04:50:07;96701.63;;;6.85;82.14
84592;BME280;74826;50.812;16.038;2024-02-28T04:52:33;96734.22;;;7.06;81.96
84592;BME280;74826;50.812;16.038;2024-02-28T04:54:59;96736.56;;;7.08;82.45
84592;BME280;74826;50.812;16.038;2024-02-28T04:57:24;96733.16;;;7.07;82.05
84592;BME280;74826;50.812;16.038;2024-02-28T04:59:49;96732.06;;;7.08;82.12
84592;BME280;74826;50.812;16.038;2024-02-28T05:02:15;96741.38;;;7.14;81.78
84592;BME280;74826;50.812;16.038;2024-02-28T05:04:42;96733.66;;;7.32;81.29
84592;BME280;74826;50.812;16.038;2024-02-28T05:07:08;96742.97;;;7.38;81.36
84592;BME280;74826;50.812;16.038;2024-02-28T05:09:33;96747.88;;;7.53;80.79
84592;BME280;74826;50.812;16.038;2024-02-28T05:11:59;96745.13;;;7.58;80.51
84592;BME280;74826;50.812;16.038;2024-02-28T05:14:24;96751.91;;;7.59;80.29
84592;BME280;74826;50.812;16.038;2024-02-28T05:16:50;96742.84;;;7.43;80.48
84592;BME280;74826;50.812;16.038;2024-02-28T05:19:15;96750.81;;;7.38;80.66
84592;BME280;74826;50.812;16.038;2024-02-28T05:21:44;96752.53;;;7.56;79.97
84592;BME280;74826;50.812;16.038;2024-02-28T05:24:11;96762.00;;;7.65;80.14
84592;BME280;74826;50.812;16.038;2024-02-28T05:26:38;96763.31;;;7.76;79.58
84592;BME280;74826;50.812;16.038;2024-02-28T05:29:04;96762.97;;;7.69;79.53
84592;BME280;74826;50.812;16.038;2024-02-28T05:31:30;96765.72;;;7.64;79.78
84592;BME280;74826;50.812;16.038;2024-02-28T05:34:00;96765.66;;;7.78;78.98
84592;BME280;74826;50.812;16.038;2024-02-28T05:36:27;96771.25;;;7.85;78.77
84592;BME280;74826;50.812;16.038;2024-02-28T05:38:54;96776.50;;;7.85;78.98
84592;BME280;74826;50.812;16.038;2024-02-28T05:41:20;96725.72;;;7.45;78.97
84592;BME280;74826;50.812;16.038;2024-02-28T05:43:47;96767.19;;;7.79;79.03
84592;BME280;74826;50.812;16.038;2024-02-28T05:46:12;96752.06;;;7.76;78.09
84592;BME280;74826;50.812;16.038;2024-02-28T05:48:40;96754.03;;;7.70;79.33
84592;BME280;74826;50.812;16.038;2024-02-28T05:51:06;96756.22;;;7.55;79.39
84592;BME280;74826;50.812;16.038;2024-02-28T05:53:31;96771.19;;;7.54;79.98
84592;BME280;74826;50.812;16.038;2024-02-28T05:56:07;96771.03;;;7.51;80.63
84592;BME280;74826;50.812;16.038;2024-02-28T05:58:45;96774.19;;;7.26;81.16
84592;BME280;74826;50.812;16.038;2024-02-28T06:01:11;96775.59;;;7.09;82.08
84592;BME280;74826;50.812;16.038;2024-02-28T06:03:37;96771.25;;;6.91;82.38
84592;BME280;74826;50.812;16.038;2024-02-28T06:06:03;96780.94;;;7.04;83.25
84592;BME280;74826;50.812;16.038;2024-02-28T06:08:34;96789.53;;;7.32;82.21
84592;BME280;74826;50.812;16.038;2024-02-28T06:10:59;96783.34;;;7.14;81.99
84592;BME280;74826;50.812;16.038;2024-02-28T06:13:26;96799.28;;;7.18;81.44
84592;BME280;74826;50.812;16.038;2024-02-28T06:15:52;96796.19;;;7.02;83.01
84592;BME280;74826;50.812;16.038;2024-02-28T06:18:17;96784.91;;;7.15;83.13
84592;BME280;74826;50.812;16.038;2024-02-28T06:20:42;96791.03;;;7.11;83.20
84592;BME280;74826;50.812;16.038;2024-02-28T06:23:08;96793.78;;;7.06;82.69
84592;BME280;74826;50.812;16.038;2024-02-28T06:25:33;96804.34;;;7.14;82.27
84592;BME280;74826;50.812;16.038;2024-02-28T06:27:59;96803.16;;;7.20;82.95
84592;BME280;74826;50.812;16.038;2024-02-28T06:30:25;96808.78;;;7.28;82.40
84592;BME280;74826;50.812;16.038;2024-02-28T06:32:51;96794.25;;;7.22;81.45
84592;BME280;74826;50.812;16.038;2024-02-28T06:35:17;96784.34;;;7.05;82.14
84592;BME280;74826;50.812;16.038;2024-02-28T06:37:42;96820.69;;;7.11;82.29
84592;BME280;74826;50.812;16.038;2024-02-28T06:40:09;96804.56;;;6.91;83.34
84592;BME280;74826;50.812;16.038;2024-02-28T06:42:35;96808.47;;;6.80;83.79
84592;BME280;74826;50.812;16.038;2024-02-28T06:45:02;96826.81;;;6.93;84.51
84592;BME280;74826;50.812;16.038;2024-02-28T06:47:30;96802.63;;;6.69;84.25
84592;BME280;74826;50.812;16.038;2024-02-28T06:49:55;96836.91;;;6.86;84.53
84592;BME280;74826;50.812;16.038;2024-02-28T06:52:21;96805.47;;;6.59;84.72
84592;BME280;74826;50.812;16.038;2024-02-28T06:54:46;96838.75;;;6.72;85.10
84592;BME280;74826;50.812;16.038;2024-02-28T06:57:11;96808.13;;;6.41;85.58
84592;BME280;74826;50.812;16.038;2024-02-28T06:59:38;96840.78;;;6.62;86.10
84592;BME280;74826;50.812;16.038;2024-02-28T07:02:03;96826.88;;;6.48;85.86
84592;BME280;74826;50.812;16.038;2024-02-28T07:04:30;96840.59;;;6.58;85.92
84592;BME280;74826;50.812;16.038;2024-02-28T07:06:55;96842.44;;;6.71;86.20
84592;BME280;74826;50.812;16.038;2024-02-28T07:09:20;96837.19;;;6.58;85.61
84592;BME280;74826;50.812;16.038;2024-02-28T07:11:46;96841.06;;;6.60;86.18
84592;BME280;74826;50.812;16.038;2024-02-28T07:14:11;96851.38;;;6.70;85.72
84592;BME280;74826;50.812;16.038;2024-02-28T07:16:37;96850.97;;;6.63;86.13
84592;BME280;74826;50.812;16.038;2024-02-28T07:19:02;96852.84;;;6.76;86.14
84592;BME280;74826;50.812;16.038;2024-02-28T07:21:28;96852.72;;;6.81;85.36
84592;BME280;74826;50.812;16.038;2024-02-28T07:23:55;96863.53;;;6.93;85.00
84592;BME280;74826;50.812;16.038;2024-02-28T07:26:21;96866.75;;;7.04;84.37
84592;BME280;74826;50.812;16.038;2024-02-28T07:28:46;96844.50;;;6.74;84.53
84592;BME280;74826;50.812;16.038;2024-02-28T07:31:18;96868.09;;;7.01;83.80
84592;BME280;74826;50.812;16.038;2024-02-28T07:33:45;96876.53;;;6.98;83.62
84592;BME280;74826;50.812;16.038;2024-02-28T07:36:11;96879.38;;;7.02;83.78
84592;BME280;74826;50.812;16.038;2024-02-28T07:38:36;96879.94;;;7.12;83.87
84592;BME280;74826;50.812;16.038;2024-02-28T07:41:02;96873.16;;;6.84;84.40
84592;BME280;74826;50.812;16.038;2024-02-28T07:43:28;96873.72;;;7.08;83.86
84592;BME280;74826;50.812;16.038;2024-02-28T07:45:54;96889.84;;;7.02;84.75
84592;BME280;74826;50.812;16.038;2024-02-28T07:48:19;96870.22;;;6.99;83.97
84592;BME280;74826;50.812;16.038;2024-02-28T07:50:45;96886.63;;;6.91;84.33
84592;BME280;74826;50.812;16.038;2024-02-28T07:53:11;96873.16;;;6.84;84.00
84592;BME280;74826;50.812;16.038;2024-02-28T07:55:37;96879.94;;;6.85;85.07
84592;BME280;74826;50.812;16.038;2024-02-28T07:58:04;96880.72;;;6.86;84.32
84592;BME280;74826;50.812;16.038;2024-02-28T08:00:30;96884.31;;;6.90;85.10
84592;BME280;74826;50.812;16.038;2024-02-28T08:02:58;96888.88;;;6.98;83.77
84592;BME280;74826;50.812;16.038;2024-02-28T08:05:23;96877.22;;;6.90;84.26
84592;BME280;74826;50.812;16.038;2024-02-28T08:07:49;96885.38;;;6.89;84.87
84592;BME280;74826;50.812;16.038;2024-02-28T08:10:14;96888.66;;;6.81;83.98
84592;BME280;74826;50.812;16.038;2024-02-28T08:12:40;96875.66;;;6.76;84.17
84592;BME280;74826;50.812;16.038;2024-02-28T08:15:05;96867.25;;;6.47;84.82
84592;BME280;74826;50.812;16.038;2024-02-28T08:17:31;96881.66;;;6.63;84.31
84592;BME280;74826;50.812;16.038;2024-02-28T08:19:56;96863.13;;;6.59;84.65
84592;BME280;74826;50.812;16.038;2024-02-28T08:22:22;96882.25;;;6.73;84.04
84592;BME280;74826;50.812;16.038;2024-02-28T08:24:51;96894.13;;;6.84;84.49
84592;BME280;74826;50.812;16.038;2024-02-28T08:27:16;96888.06;;;6.70;84.21
84592;BME280;74826;50.812;16.038;2024-02-28T08:29:42;96899.13;;;6.67;84.85
84592;BME280;74826;50.812;16.038;2024-02-28T08:32:10;96903.38;;;6.63;83.85
84592;BME280;74826;50.812;16.038;2024-02-28T08:34:36;96904.97;;;6.64;84.44
84592;BME280;74826;50.812;16.038;2024-02-28T08:37:01;96886.88;;;6.49;84.24
84592;BME280;74826;50.812;16.038;2024-02-28T08:39:27;96898.63;;;6.65;83.39
84592;BME280;74826;50.812;16.038;2024-02-28T08:41:52;96893.84;;;6.54;83.47
84592;BME280;74826;50.812;16.038;2024-02-28T08:44:18;96899.50;;;6.47;83.93
84592;BME280;74826;50.812;16.038;2024-02-28T08:46:46;96899.50;;;6.47;83.11
84592;BME280;74826;50.812;16.038;2024-02-28T08:49:13;96907.44;;;6.56;83.20
84592;BME280;74826;50.812;16.038;2024-02-28T08:51:38;96908.00;;;6.39;83.29
84592;BME280;74826;50.812;16.038;2024-02-28T08:54:05;96921.03;;;6.58;82.62
84592;BME280;74826;50.812;16.038;2024-02-28T08:56:30;96918.63;;;6.61;83.24
84592;BME280;74826;50.812;16.038;2024-02-28T08:58:56;96914.53;;;6.42;84.09
84592;BME280;74826;50.812;16.038;2024-02-28T09:01:21;96920.28;;;6.57;83.92
84592;BME280;74826;50.812;16.038;2024-02-28T09:03:47;96914.44;;;6.47;83.65
84592;BME280;74826;50.812;16.038;2024-02-28T09:06:12;96925.94;;;6.64;83.98
84592;BME280;74826;50.812;16.038;2024-02-28T09:08:37;96898.72;;;6.60;82.38
84592;BME280;74826;50.812;16.038;2024-02-28T09:11:03;96925.78;;;6.88;83.66
84592;BME280;74826;50.812;16.038;2024-02-28T09:13:30;96915.84;;;6.85;82.48
84592;BME280;74826;50.812;16.038;2024-02-28T09:15:55;96927.75;;;6.96;82.11
84592;BME280;74826;50.812;16.038;2024-02-28T09:18:22;96931.59;;;6.98;82.00
84592;BME280;74826;50.812;16.038;2024-02-28T09:20:48;96922.97;;;6.84;81.52
84592;BME280;74826;50.812;16.038;2024-02-28T09:23:13;96931.81;;;6.88;82.99
84592;BME280;74826;50.812;16.038;2024-02-28T09:25:39;96937.44;;;6.95;81.69
84592;BME280;74826;50.812;16.038;2024-02-28T09:28:05;96922.38;;;6.87;81.37
84592;BME280;74826;50.812;16.038;2024-02-28T09:30:31;96929.03;;;6.66;82.31
84592;BME280;74826;50.812;16.038;2024-02-28T09:32:56;96925.97;;;6.91;81.64
84592;BME280;74826;50.812;16.038;2024-02-28T09:35:22;96932.56;;;6.89;82.73
84592;BME280;74826;50.812;16.038;2024-02-28T09:37:47;96942.31;;;6.88;81.91
84592;BME280;74826;50.812;16.038;2024-02-28T09:40:13;96959.59;;;7.03;82.22
84592;BME280;74826;50.812;16.038;2024-02-28T09:42:38;96956.63;;;7.23;80.72
84592;BME280;74826;50.812;16.038;2024-02-28T09:45:04;96959.63;;;7.16;79.95
84592;BME280;74826;50.812;16.038;2024-02-28T09:47:33;96947.94;;;7.09;79.98
84592;BME280;74826;50.812;16.038;2024-02-28T09:49:59;96956.06;;;6.80;81.64
84592;BME280;74826;50.812;16.038;2024-02-28T09:52:26;96957.63;;;6.95;81.23
84592;BME280;74826;50.812;16.038;2024-02-28T09:54:55;96969.13;;;7.12;81.55
84592;BME280;74826;50.812;16.038;2024-02-28T09:57:21;96979.63;;;7.12;81.15
84592;BME280;74826;50.812;16.038;2024-02-28T09:59:55;96967.97;;;7.18;81.37
84592;BME280;74826;50.812;16.038;2024-02-28T10:02:22;96980.59;;;7.16;79.64
84592;BME280;74826;50.812;16.038;2024-02-28T10:04:48;96989.91;;;6.95;80.41
84592;BME280;74826;50.812;16.038;2024-02-28T10:07:15;96996.13;;;6.99;81.33
84592;BME280;74826;50.812;16.038;2024-02-28T10:09:41;96988.63;;;6.93;81.01
84592;BME280;74826;50.812;16.038;2024-02-28T10:12:07;96989.50;;;6.88;80.73
84592;BME280;74826;50.812;16.038;2024-02-28T10:14:33;96990.78;;;6.59;81.86
84592;BME280;74826;50.812;16.038;2024-02-28T10:16:59;96995.06;;;6.68;82.29
84592;BME280;74826;50.812;16.038;2024-02-28T10:19:24;96992.69;;;6.53;82.03
84592;BME280;74826;50.812;16.038;2024-02-28T10:21:50;97006.78;;;6.57;81.61
84592;BME280;74826;50.812;16.038;2024-02-28T10:24:15;97002.47;;;6.29;83.12
84592;BME280;74826;50.812;16.038;2024-02-28T10:26:42;97009.25;;;6.30;83.99
84592;BME280;74826;50.812;16.038;2024-02-28T10:29:08;97005.00;;;5.97;84.38
84592;BME280;74826;50.812;16.038;2024-02-28T10:31:33;96991.19;;;5.91;84.69
84592;BME280;74826;50.812;16.038;2024-02-28T10:34:00;97004.94;;;6.20;84.07
84592;BME280;74826;50.812;16.038;2024-02-28T10:36:30;97004.38;;;6.23;82.99
84592;BME280;74826;50.812;16.038;2024-02-28T10:38:57;97015.28;;;6.30;82.90
84592;BME280;74826;50.812;16.038;2024-02-28T10:41:25;96998.56;;;6.26;82.50
84592;BME280;74826;50.812;16.038;2024-02-28T10:43:51;96996.09;;;6.35;81.86
84592;BME280;74826;50.812;16.038;2024-02-28T10:46:20;96999.63;;;6.44;82.55
84592;BME280;74826;50.812;16.038;2024-02-28T10:48:46;97001.44;;;6.62;81.74
84592;BME280;74826;50.812;16.038;2024-02-28T10:51:20;97005.88;;;6.80;81.04
84592;BME280;74826;50.812;16.038;2024-02-28T10:53:49;97012.69;;;6.81;80.80
84592;BME280;74826;50.812;16.038;2024-02-28T10:56:19;97001.69;;;6.79;80.41
84592;BME280;74826;50.812;16.038;2024-02-28T10:58:51;97022.13;;;6.82;79.07
84592;BME280;74826;50.812;16.038;2024-02-28T11:01:17;96984.66;;;6.63;79.84
84592;BME280;74826;50.812;16.038;2024-02-28T11:03:44;97015.94;;;6.73;79.76
84592;BME280;74826;50.812;16.038;2024-02-28T11:06:17;97022.44;;;6.62;80.59
84592;BME280;74826;50.812;16.038;2024-02-28T11:08:46;97019.16;;;6.70;80.32
84592;BME280;74826;50.812;16.038;2024-02-28T11:11:14;97021.53;;;6.85;80.45
84592;BME280;74826;50.812;16.038;2024-02-28T11:13:39;97007.28;;;6.91;80.24
84592;BME280;74826;50.812;16.038;2024-02-28T11:16:09;97020.41;;;7.05;80.91
84592;BME280;74826;50.812;16.038;2024-02-28T11:18:34;97005.28;;;7.02;79.45
84592;BME280;74826;50.812;16.038;2024-02-28T11:21:00;97027.16;;;7.25;78.90
84592;BME280;74826;50.812;16.038;2024-02-28T11:23:26;97033.72;;;7.41;78.95
84592;BME280;74826;50.812;16.038;2024-02-28T11:26:03;97032.34;;;7.57;77.72
84592;BME280;74826;50.812;16.038;2024-02-28T11:28:28;97019.00;;;7.26;78.16
84592;BME280;74826;50.812;16.038;2024-02-28T11:30:54;97004.72;;;7.46;77.49
84592;BME280;74826;50.812;16.038;2024-02-28T11:33:19;97008.63;;;7.62;77.03
84592;BME280;74826;50.812;16.038;2024-02-28T11:35:54;97029.63;;;7.89;76.60
84592;BME280;74826;50.812;16.038;2024-02-28T11:38:19;97045.75;;;7.82;74.94
84592;BME280;74826;50.812;16.038;2024-02-28T11:40:49;97028.28;;;7.78;76.40
84592;BME280;74826;50.812;16.038;2024-02-28T11:43:15;97043.44;;;7.81;75.87
84592;BME280;74826;50.812;16.038;2024-02-28T11:45:40;97036.53;;;7.58;78.21
84592;BME280;74826;50.812;16.038;2024-02-28T11:48:07;97042.63;;;7.94;77.77
84592;BME280;74826;50.812;16.038;2024-02-28T11:50:32;97052.28;;;7.85;77.23
84592;BME280;74826;50.812;16.038;2024-02-28T11:52:57;97056.75;;;7.98;76.74
84592;BME280;74826;50.812;16.038;2024-02-28T11:55:24;97061.91;;;8.03;76.74
84592;BME280;74826;50.812;16.038;2024-02-28T11:57:50;97064.34;;;8.13;76.28
84592;BME280;74826;50.812;16.038;2024-02-28T12:00:16;97041.47;;;8.00;75.26
84592;BME280;74826;50.812;16.038;2024-02-28T12:02:41;97043.81;;;8.15;74.77
84592;BME280;74826;50.812;16.038;2024-02-28T12:05:07;97054.41;;;8.10;74.94
84592;BME280;74826;50.812;16.038;2024-02-28T12:07:34;97030.00;;;7.69;76.63
84592;BME280;74826;50.812;16.038;2024-02-28T12:10:00;97038.97;;;7.68;76.63
84592;BME280;74826;50.812;16.038;2024-02-28T12:12:27;97050.44;;;7.58;75.44
84592;BME280;74826;50.812;16.038;2024-02-28T12:14:53;97055.22;;;7.70;77.14
84592;BME280;74826;50.812;16.038;2024-02-28T12:17:18;97050.72;;;7.57;77.28
84592;BME280;74826;50.812;16.038;2024-02-28T12:19:44;97047.34;;;7.56;78.08
84592;BME280;74826;50.812;16.038;2024-02-28T12:22:10;97072.13;;;7.64;76.74
84592;BME280;74826;50.812;16.038;2024-02-28T12:24:36;97053.06;;;7.72;76.30
84592;BME280;74826;50.812;16.038;2024-02-28T12:27:01;97058.31;;;7.72;74.77
84592;BME280;74826;50.812;16.038;2024-02-28T12:29:27;97068.16;;;7.80;75.16
84592;BME280;74826;50.812;16.038;2024-02-28T12:31:52;97071.28;;;7.68;75.37
84592;BME280;74826;50.812;16.038;2024-02-28T12:34:18;97048.50;;;7.50;76.11
84592;BME280;74826;50.812;16.038;2024-02-28T12:36:43;97066.88;;;7.50;76.33
84592;BME280;74826;50.812;16.038;2024-02-28T12:39:09;97073.94;;;7.50;75.97
84592;BME280;74826;50.812;16.038;2024-02-28T12:41:37;97055.69;;;7.45;76.69
84592;BME280;74826;50.812;16.038;2024-02-28T12:44:04;97086.31;;;7.63;75.76
84592;BME280;74826;50.812;16.038;2024-02-28T12:46:30;97069.50;;;7.50;76.70
84592;BME280;74826;50.812;16.038;2024-02-28T12:48:55;97068.69;;;7.50;76.27
84592;BME280;74826;50.812;16.038;2024-02-28T12:51:38;97089.16;;;7.53;77.31
84592;BME280;74826;50.812;16.038;2024-02-28T12:54:03;97084.16;;;7.51;76.28